Portada
METAR-TAF:

METAR-TAF

Aeroports :

Sanya, Xina

latitud: 18-18N, longitud: 109-24E, altitud: 27 m

Observació

L'informe es va fer fa 50 minuts, a les 16:00 UTC
Vent 8 kt del Est
Temperatura 27°C
Humitat 84%
Pressió 1014 hPa
Visibilitat 10 km o més
sense núvols per sota de 1500 mi sense presència de cumulonimbus.

METAR: ZJSY 031600Z 10004MPS CAVOK 27/24 Q1014 NOSIG

Hora: 00:50 (16:50 UTC)

Pronòstic

L'informe es va fer fa 7 hores i 38 minuts, a les 09:12 UTC
Pronòstic vàlid del 03 a les 12 UTC al 04 a les 12 UTC
Vent 8 kt del Est
Visibilitat 10 km o més
Escasses núvols a una alçada de 2000 ft
Evolucionant progressivament
l' 04 a les 02 UTC al 04 a les 03 UTC
Vent 10 kt del Sud/Sud-Est

TAF: ZJSY 030912Z 0312/0412 09004MPS 9999 FEW020 TX31/0406Z TN25/0321Z BECMG 0402/0403 15005MPS

Observacions i pronòstics meteorològics de més de 4000 aeroports (METAR i TAF).

Les estacions disponibles són els punts grocs i vermells al mapa.

Posi el ratolí al punt desitjat per veure el nom de l'estació.

Feu clic per veure les observacions i els pronòstics meteorològics.

Per canviar el mapa: feu clic els botons verds amb una creu de color negre per apropar; al botó verd amb un guió per allunyar la imatge; o en les fletxes verdes per a mapes adjacents.


METAR-TAF: